createdAt,value
2023-02-24T00:00:34.208Z,25.87
2023-02-24T00:03:06.849Z,28.17
2023-02-24T00:05:42.397Z,26.50
2023-02-24T00:08:12.297Z,26.47
2023-02-24T00:10:42.406Z,27.03
2023-02-24T00:13:12.813Z,26.10
2023-02-24T00:15:41.580Z,27.37
2023-02-24T00:18:12.229Z,25.90
2023-02-24T00:20:41.803Z,28.77
2023-02-24T00:23:12.555Z,26.17
2023-02-24T00:25:41.810Z,27.90
2023-02-24T00:28:15.105Z,26.97
2023-02-24T00:30:46.804Z,26.87
2023-02-24T00:33:22.753Z,27.27
2023-02-24T00:35:53.448Z,27.37
2023-02-24T00:38:25.839Z,26.23
2023-02-24T00:40:56.041Z,26.07
2023-02-24T00:43:27.123Z,26.07
2023-02-24T00:45:56.282Z,27.83
2023-02-24T00:48:29.361Z,26.27
2023-02-24T00:50:58.929Z,26.00
2023-02-24T00:53:29.892Z,25.43
2023-02-24T00:56:02.733Z,27.20
2023-02-24T00:58:32.552Z,26.27
2023-02-24T01:01:05.094Z,27.67
2023-02-24T01:03:40.046Z,27.83
2023-02-24T01:06:09.427Z,27.73
2023-02-24T01:08:40.577Z,28.47
2023-02-24T01:11:28.302Z,29.70
2023-02-24T01:13:57.546Z,27.63
2023-02-24T01:16:27.402Z,28.60
2023-02-24T01:19:05.311Z,29.10
2023-02-24T01:21:34.618Z,30.97
2023-02-24T01:24:03.577Z,32.63
2023-02-24T01:26:32.659Z,32.57
2023-02-24T01:29:02.722Z,30.53
2023-02-24T01:31:33.110Z,30.87
2023-02-24T01:34:06.308Z,30.17
2023-02-24T01:36:35.769Z,30.90
2023-02-24T01:39:06.639Z,30.77
2023-02-24T01:41:36.250Z,30.90
2023-02-24T01:44:10.437Z,30.40
2023-02-24T01:46:41.313Z,30.50
2023-02-24T01:49:17.671Z,29.87
2023-02-24T01:51:50.909Z,29.63
2023-02-24T01:54:26.076Z,31.30
2023-02-24T01:56:57.922Z,30.00
2023-02-24T01:59:31.190Z,29.47
2023-02-24T02:02:07.317Z,31.63
2023-02-24T02:04:43.080Z,29.63
2023-02-24T02:07:16.401Z,31.07
2023-02-24T02:09:48.172Z,31.03
2023-02-24T02:12:17.861Z,30.97
2023-02-24T02:14:52.653Z,31.63
2023-02-24T02:17:33.702Z,31.37
2023-02-24T02:20:42.745Z,30.40
2023-02-24T02:23:45.430Z,30.70
2023-02-24T02:26:42.521Z,29.60
2023-02-24T02:29:34.690Z,32.27
2023-02-24T02:32:38.762Z,31.23
2023-02-24T02:35:15.094Z,32.03
2023-02-24T02:37:56.651Z,32.17
2023-02-24T02:40:33.489Z,32.70
2023-02-24T02:43:12.626Z,33.43
2023-02-24T02:45:47.975Z,31.90
2023-02-24T02:48:21.558Z,31.60
2023-02-24T02:50:55.482Z,32.33
2023-02-24T02:53:29.527Z,34.07
2023-02-24T02:56:05.512Z,32.70
2023-02-24T02:58:38.825Z,33.10
2023-02-24T03:01:09.649Z,32.53
2023-02-24T03:03:41.862Z,30.93
2023-02-24T03:06:17.727Z,32.00
2023-02-24T03:08:54.803Z,30.03
2023-02-24T03:11:24.725Z,31.80
2023-02-24T03:13:58.026Z,32.80
2023-02-24T03:16:32.428Z,32.77
2023-02-24T03:19:06.153Z,33.07
2023-02-24T03:21:41.271Z,33.43
2023-02-24T03:24:11.178Z,34.80
2023-02-24T03:26:45.539Z,34.13
2023-02-24T03:29:24.446Z,34.73
2023-02-24T03:32:01.732Z,33.83
2023-02-24T03:34:39.428Z,35.73
2023-02-24T03:37:11.417Z,33.77
2023-02-24T03:39:41.292Z,35.87
2023-02-24T03:42:22.794Z,34.00
2023-02-24T03:44:52.729Z,35.77
2023-02-24T03:47:21.731Z,35.80
2023-02-24T03:49:54.179Z,36.23
2023-02-24T03:52:37.124Z,35.57
2023-02-24T03:55:18.365Z,36.73
2023-02-24T03:58:00.301Z,36.67
2023-02-24T04:00:45.985Z,35.90
2023-02-24T04:03:25.944Z,38.37
2023-02-24T04:06:11.490Z,37.03
2023-02-24T04:08:49.162Z,37.03
2023-02-24T04:11:24.515Z,36.33
2023-02-24T04:14:02.135Z,37.43
2023-02-24T04:16:40.407Z,36.43
2023-02-24T04:19:15.765Z,37.53
2023-02-24T04:21:50.334Z,36.80
2023-02-24T04:24:34.910Z,36.57
2023-02-24T04:27:09.968Z,36.67
2023-02-24T04:29:49.538Z,37.60
2023-02-24T04:32:24.266Z,38.33
2023-02-24T04:34:55.674Z,38.07
2023-02-24T04:37:27.061Z,35.63
2023-02-24T04:39:57.956Z,34.40
2023-02-24T04:42:30.287Z,37.43
2023-02-24T04:44:59.550Z,37.47
2023-02-24T04:47:29.455Z,37.30
2023-02-24T04:49:58.794Z,36.53
2023-02-24T04:52:28.170Z,36.37
2023-02-24T04:54:58.751Z,37.43
2023-02-24T04:57:28.063Z,36.67
2023-02-24T04:59:57.954Z,37.17
2023-02-24T05:02:27.164Z,37.37
2023-02-24T05:04:56.476Z,35.60
2023-02-24T05:07:25.769Z,37.60
2023-02-24T05:09:55.616Z,35.57
2023-02-24T05:12:26.555Z,35.37
2023-02-24T05:14:55.669Z,34.77
2023-02-24T05:17:26.193Z,33.43
2023-02-24T05:20:12.448Z,33.33
2023-02-24T05:22:41.594Z,35.83
2023-02-24T05:25:14.810Z,36.33
2023-02-24T05:27:45.805Z,35.17
2023-02-24T05:30:16.638Z,35.30
2023-02-24T05:32:47.036Z,33.20
2023-02-24T05:35:19.976Z,33.53
2023-02-24T05:37:49.929Z,33.30
2023-02-24T05:40:23.752Z,33.43
2023-02-24T05:42:54.742Z,31.37
2023-02-24T05:45:23.833Z,33.47
2023-02-24T05:47:55.484Z,32.53
2023-02-24T05:50:27.151Z,33.97
2023-02-24T05:52:57.679Z,31.97
2023-02-24T05:55:32.713Z,32.07
2023-02-24T05:58:06.661Z,30.83
2023-02-24T06:00:39.432Z,29.53
2023-02-24T06:03:17.956Z,29.77
2023-02-24T06:05:55.390Z,30.83
2023-02-24T06:08:26.423Z,29.20
2023-02-24T06:10:56.186Z,31.70
2023-02-24T06:13:28.250Z,31.13
2023-02-24T06:15:59.825Z,30.47
2023-02-24T06:18:30.348Z,29.57
2023-02-24T06:21:03.510Z,30.43
2023-02-24T06:23:34.591Z,29.77
2023-02-24T06:26:05.100Z,29.07
2023-02-24T06:28:36.247Z,22.30
2023-02-24T06:31:08.349Z,18.87
2023-02-24T06:33:40.626Z,17.87
2023-02-24T06:36:11.145Z,18.73
2023-02-24T06:38:40.474Z,17.83
2023-02-24T06:41:12.585Z,16.53
2023-02-24T06:43:48.910Z,17.33
2023-02-24T06:46:21.606Z,17.63
2023-02-24T06:48:51.692Z,17.83
2023-02-24T06:51:22.095Z,18.67
2023-02-24T06:54:03.747Z,17.93
2023-02-24T06:56:42.564Z,18.33
2023-02-24T06:59:22.491Z,18.93
2023-02-24T07:01:54.300Z,18.67
2023-02-24T07:04:44.333Z,20.00
2023-02-24T07:07:15.300Z,20.53
2023-02-24T07:09:46.522Z,20.67
2023-02-24T07:12:26.872Z,21.63
2023-02-24T07:15:04.356Z,19.93
2023-02-24T07:17:51.228Z,21.60
2023-02-24T07:20:28.637Z,20.50
2023-02-24T07:23:04.337Z,21.60
2023-02-24T07:25:36.151Z,19.17
2023-02-24T07:28:19.569Z,16.90
2023-02-24T07:30:53.101Z,15.27
2023-02-24T07:33:23.558Z,15.90
2023-02-24T07:36:01.362Z,15.77
2023-02-24T07:38:39.046Z,15.53
2023-02-24T07:41:13.433Z,16.50
2023-02-24T07:43:54.760Z,16.13
2023-02-24T07:46:31.192Z,15.37
2023-02-24T07:49:01.919Z,14.90
2023-02-24T07:51:31.307Z,14.83
2023-02-24T07:54:03.256Z,13.73
2023-02-24T07:56:36.433Z,13.80
2023-02-24T07:59:14.795Z,13.93
2023-02-24T08:01:51.846Z,12.90
2023-02-24T08:04:23.787Z,12.97
2023-02-24T08:06:57.963Z,13.10
2023-02-24T08:10:10.637Z,13.20
2023-02-24T08:12:44.342Z,11.97
2023-02-24T08:15:24.463Z,12.10
2023-02-24T08:18:00.773Z,13.20
2023-02-24T08:20:36.674Z,11.83
2023-02-24T08:23:08.838Z,12.20
2023-02-24T08:25:38.953Z,12.30
2023-02-24T08:28:12.319Z,12.93
2023-02-24T08:30:46.298Z,12.50
2023-02-24T08:33:23.650Z,13.57
2023-02-24T08:36:01.719Z,12.40
2023-02-24T08:38:42.521Z,12.70
2023-02-24T08:41:21.483Z,12.20
2023-02-24T08:43:51.240Z,12.47
2023-02-24T08:46:27.099Z,12.03
2023-02-24T08:49:01.225Z,12.13
2023-02-24T08:51:35.376Z,12.43
2023-02-24T08:54:11.728Z,12.63
2023-02-24T08:56:44.282Z,12.37
2023-02-24T08:59:29.586Z,13.23
2023-02-24T09:02:13.798Z,12.80
2023-02-24T09:04:46.468Z,13.03
2023-02-24T09:07:17.324Z,12.40
2023-02-24T09:09:47.168Z,13.13
2023-02-24T09:12:25.161Z,11.33
2023-02-24T09:14:58.665Z,11.50
2023-02-24T09:17:51.799Z,11.90
2023-02-24T09:20:56.577Z,11.50
2023-02-24T09:23:47.562Z,10.57
2023-02-24T09:26:16.989Z,11.00
2023-02-24T09:28:55.315Z,11.27
2023-02-24T09:31:41.928Z,11.23
2023-02-24T09:34:18.926Z,10.07
2023-02-24T09:37:01.884Z,10.40
2023-02-24T09:39:52.258Z,10.23
2023-02-24T09:42:36.057Z,8.30
2023-02-24T09:45:12.570Z,8.90
2023-02-24T09:47:57.393Z,9.20
2023-02-24T09:51:01.979Z,7.77
2023-02-24T09:53:49.653Z,8.03
2023-02-24T09:56:25.556Z,8.30
2023-02-24T09:59:01.545Z,8.20
2023-02-24T10:01:43.632Z,8.47
2023-02-24T10:04:29.217Z,7.67
2023-02-24T10:07:04.416Z,7.73
2023-02-24T10:09:38.077Z,7.20
2023-02-24T10:12:17.675Z,7.70
2023-02-24T10:14:53.852Z,7.23
2023-02-24T10:17:25.032Z,6.47
2023-02-24T10:20:00.956Z,8.07
2023-02-24T10:22:51.041Z,7.70
2023-02-24T10:25:40.832Z,7.43
2023-02-24T10:28:23.657Z,8.40
2023-02-24T10:31:10.604Z,8.27
2023-02-24T10:33:45.987Z,8.13
2023-02-24T10:36:22.762Z,7.40
2023-02-24T10:38:56.792Z,5.80
2023-02-24T10:41:29.787Z,4.77
2023-02-24T10:44:00.496Z,5.70
2023-02-24T10:46:41.512Z,5.10
2023-02-24T10:49:17.208Z,5.10
2023-02-24T10:51:53.730Z,4.83
2023-02-24T10:55:05.428Z,4.40
2023-02-24T10:57:58.592Z,4.63
2023-02-24T11:00:52.059Z,4.97
2023-02-24T11:03:36.974Z,4.50
2023-02-24T11:06:31.116Z,4.50
2023-02-24T11:09:19.953Z,5.30
2023-02-24T11:12:07.537Z,4.80
2023-02-24T11:15:08.636Z,4.63
2023-02-24T11:17:42.714Z,4.60
2023-02-24T11:20:26.984Z,6.70
2023-02-24T11:22:59.095Z,5.20
2023-02-24T11:25:36.944Z,5.33
2023-02-24T11:28:06.578Z,4.63
2023-02-24T11:30:46.569Z,5.30
2023-02-24T11:33:26.900Z,5.20
2023-02-24T11:36:05.424Z,5.50
2023-02-24T11:38:42.351Z,4.67
2023-02-24T11:41:22.626Z,6.87
2023-02-24T11:44:02.653Z,5.07
2023-02-24T11:46:43.590Z,4.63
2023-02-24T11:49:27.974Z,4.50
2023-02-24T11:52:00.198Z,3.90
2023-02-24T11:54:35.696Z,4.30
2023-02-24T11:57:07.435Z,5.00
2023-02-24T12:02:51.783Z,4.77
2023-02-24T12:05:24.619Z,5.10
2023-02-24T12:07:59.332Z,5.10
2023-02-24T12:10:47.877Z,4.87
2023-02-24T12:13:32.355Z,5.60
2023-02-24T12:16:10.640Z,6.37
2023-02-24T12:18:47.027Z,6.37
2023-02-24T12:21:23.267Z,5.83
2023-02-24T12:23:58.568Z,7.20
2023-02-24T12:26:40.102Z,7.50
2023-02-24T12:29:33.016Z,6.97
2023-02-24T12:32:14.914Z,6.47
2023-02-24T12:35:02.642Z,6.47
2023-02-24T12:37:52.270Z,6.77
2023-02-24T12:40:51.834Z,6.63
2023-02-24T12:43:34.925Z,5.93
2023-02-24T12:46:14.211Z,6.50
2023-02-24T12:49:29.713Z,6.43
2023-02-24T12:52:20.517Z,6.30
2023-02-24T12:54:56.494Z,6.53
2023-02-24T12:57:32.723Z,5.80
2023-02-24T13:00:08.437Z,5.47
2023-02-24T13:02:50.596Z,5.13
2023-02-24T13:05:32.272Z,3.83
2023-02-24T13:08:17.820Z,4.23
2023-02-24T13:10:51.604Z,4.00
2023-02-24T13:13:29.978Z,4.17
2023-02-24T13:16:02.242Z,3.80
2023-02-24T13:18:35.644Z,4.17
2023-02-24T13:21:08.238Z,4.10
2023-02-24T13:23:39.539Z,3.47
2023-02-24T13:26:09.332Z,4.27
2023-02-24T13:28:39.741Z,4.13
2023-02-24T13:31:12.218Z,4.33
2023-02-24T13:33:43.888Z,4.13
2023-02-24T13:36:16.948Z,3.97
2023-02-24T13:38:49.277Z,4.00
2023-02-24T13:41:38.382Z,3.00
2023-02-24T13:44:25.053Z,3.40
2023-02-24T13:47:22.015Z,2.67
2023-02-24T13:50:04.049Z,2.30
2023-02-24T13:52:47.724Z,2.60
2023-02-24T13:55:34.218Z,2.50
2023-02-24T13:58:28.311Z,2.67
2023-02-24T14:01:11.423Z,2.83
2023-02-24T14:03:43.063Z,2.70
2023-02-24T14:06:18.212Z,3.07
2023-02-24T14:08:51.408Z,2.80
2023-02-24T14:11:26.402Z,2.43
2023-02-24T14:13:58.147Z,2.40
2023-02-24T14:16:33.601Z,2.70
2023-02-24T14:19:05.390Z,2.50
2023-02-24T14:21:35.709Z,2.83
2023-02-24T14:24:07.620Z,2.73
2023-02-24T14:26:44.893Z,2.80
2023-02-24T14:29:19.641Z,2.70
2023-02-24T14:31:52.311Z,3.07
2023-02-24T14:34:23.942Z,2.80
2023-02-24T14:36:55.965Z,3.00
2023-02-24T14:39:29.347Z,2.60
2023-02-24T14:42:16.644Z,2.90
2023-02-24T14:44:47.689Z,3.10
2023-02-24T14:47:18.975Z,3.33
2023-02-24T14:50:00.449Z,2.87
2023-02-24T14:52:37.614Z,3.23
2023-02-24T14:55:09.519Z,3.03
2023-02-24T14:57:45.733Z,3.10
2023-02-24T15:00:22.454Z,3.70
2023-02-24T15:02:56.527Z,4.37
2023-02-24T15:05:25.982Z,5.60
2023-02-24T15:07:55.289Z,4.67
2023-02-24T15:10:27.146Z,4.30
2023-02-24T15:13:01.230Z,4.80
2023-02-24T15:15:34.604Z,5.10
2023-02-24T15:18:13.854Z,5.13
2023-02-24T15:20:43.641Z,5.30
2023-02-24T15:23:28.296Z,4.27
2023-02-24T15:25:57.710Z,3.57
2023-02-24T15:28:31.451Z,3.77
2023-02-24T15:31:09.756Z,3.40
2023-02-24T15:33:41.980Z,3.50
2023-02-24T15:36:14.253Z,3.17
2023-02-24T15:38:45.592Z,3.63
2023-02-24T15:41:16.208Z,5.00
2023-02-24T15:43:53.352Z,3.80
2023-02-24T15:46:25.976Z,3.93
2023-02-24T15:48:56.746Z,4.43
2023-02-24T15:51:36.005Z,3.83
2023-02-24T15:54:06.893Z,3.90
2023-02-24T15:56:39.230Z,4.27
2023-02-24T15:59:10.025Z,4.57
2023-02-24T16:01:39.086Z,4.00
2023-02-24T16:04:09.969Z,4.90
2023-02-24T16:06:42.588Z,4.83
2023-02-24T16:09:16.005Z,5.03
2023-02-24T16:11:49.134Z,4.90
2023-02-24T16:14:21.970Z,5.67
2023-02-24T16:16:52.220Z,5.73
2023-02-24T16:19:21.383Z,6.03
2023-02-24T16:21:50.414Z,5.13
2023-02-24T16:24:21.780Z,5.37
2023-02-24T16:26:50.792Z,4.57
2023-02-24T16:29:22.784Z,4.67
2023-02-24T16:31:53.051Z,4.93
2023-02-24T16:34:22.012Z,5.30
2023-02-24T16:36:51.990Z,5.40
2023-02-24T16:39:21.118Z,5.60
2023-02-24T16:41:50.449Z,5.40
2023-02-24T16:44:19.273Z,5.67
2023-02-24T16:46:49.631Z,5.10
2023-02-24T16:49:21.855Z,5.37
2023-02-24T16:51:51.081Z,6.60
2023-02-24T16:54:22.179Z,6.77
2023-02-24T16:56:51.692Z,5.93
2023-02-24T16:59:20.639Z,5.40
2023-02-24T17:01:51.263Z,5.10
2023-02-24T17:04:20.715Z,5.13
2023-02-24T17:06:50.680Z,4.97
2023-02-24T17:09:19.547Z,4.43
2023-02-24T17:11:50.865Z,4.77
2023-02-24T17:14:24.499Z,5.00
2023-02-24T17:16:55.387Z,4.20
2023-02-24T17:19:24.252Z,4.97
2023-02-24T17:21:53.643Z,4.37
2023-02-24T17:24:22.858Z,5.07
2023-02-24T17:26:52.072Z,5.10
2023-02-24T17:29:21.407Z,5.20
2023-02-24T17:31:50.565Z,5.20
2023-02-24T17:34:24.409Z,5.17
2023-02-24T17:36:53.729Z,5.27
2023-02-24T17:39:22.424Z,6.13
2023-02-24T17:41:51.785Z,6.63
2023-02-24T17:44:20.820Z,5.40
2023-02-24T17:46:50.261Z,6.03
2023-02-24T17:49:20.865Z,5.50
2023-02-24T17:51:49.761Z,5.63
2023-02-24T17:54:18.528Z,5.83
2023-02-24T17:56:47.878Z,6.63
2023-02-24T17:59:17.513Z,6.37
2023-02-24T18:01:47.136Z,6.33
2023-02-24T18:04:16.193Z,7.10
2023-02-24T18:06:47.484Z,6.87
2023-02-24T18:09:16.617Z,6.50
2023-02-24T18:11:47.994Z,6.83
2023-02-24T18:14:17.421Z,7.27
2023-02-24T18:16:46.385Z,7.73
2023-02-24T18:19:15.977Z,7.70
2023-02-24T18:21:46.518Z,8.70
2023-02-24T18:24:15.589Z,8.80
2023-02-24T18:26:44.843Z,10.90
2023-02-24T18:29:14.382Z,10.50
2023-02-24T18:31:43.205Z,8.73
2023-02-24T18:34:12.097Z,10.93
2023-02-24T18:36:41.072Z,8.57
2023-02-24T18:39:14.902Z,8.23
2023-02-24T18:41:44.980Z,9.60
2023-02-24T18:44:14.928Z,8.37
2023-02-24T18:46:43.750Z,8.47
2023-02-24T18:49:12.835Z,9.23
2023-02-24T18:51:42.409Z,8.20
2023-02-24T18:54:14.160Z,8.07
2023-02-24T18:56:43.357Z,8.67
2023-02-24T18:59:12.227Z,9.73
2023-02-24T19:01:41.415Z,9.20
2023-02-24T19:04:10.925Z,8.50
2023-02-24T19:06:42.072Z,8.40
2023-02-24T19:09:14.129Z,9.27
2023-02-24T19:11:44.572Z,9.60
2023-02-24T19:14:15.393Z,10.10
2023-02-24T19:16:44.627Z,9.17
2023-02-24T19:19:16.702Z,10.60
2023-02-24T19:21:46.283Z,9.83
2023-02-24T19:24:16.916Z,9.77
2023-02-24T19:26:48.185Z,9.93
2023-02-24T19:29:19.125Z,9.53
2023-02-24T19:31:54.499Z,10.97
2023-02-24T19:34:25.481Z,11.40
2023-02-24T19:36:55.320Z,9.20
2023-02-24T19:39:26.201Z,7.97
2023-02-24T19:41:57.979Z,7.00
2023-02-24T19:44:27.433Z,7.27
2023-02-24T19:46:56.888Z,6.40
2023-02-24T19:49:26.104Z,6.30
2023-02-24T19:51:56.059Z,6.50
2023-02-24T19:54:27.107Z,6.37
2023-02-24T19:56:58.541Z,5.23
2023-02-24T19:59:28.572Z,5.87
2023-02-24T20:01:58.119Z,5.37
2023-02-24T20:04:27.503Z,5.43
2023-02-24T20:06:57.780Z,4.90
2023-02-24T20:09:29.686Z,5.50
2023-02-24T20:12:04.073Z,5.07
2023-02-24T20:14:33.910Z,6.00
2023-02-24T20:17:03.599Z,5.90
2023-02-24T20:19:33.667Z,5.90
2023-02-24T20:22:02.638Z,5.57
2023-02-24T20:24:36.468Z,5.73
2023-02-24T20:27:06.746Z,5.67
2023-02-24T20:29:36.463Z,5.37
2023-02-24T20:32:08.284Z,5.87
2023-02-24T20:34:39.396Z,6.20
2023-02-24T20:37:09.676Z,5.60
2023-02-24T20:39:43.227Z,6.00
2023-02-24T20:42:14.121Z,6.07
2023-02-24T20:44:47.434Z,6.10
2023-02-24T20:47:19.088Z,5.97
2023-02-24T20:49:49.120Z,6.97
2023-02-24T20:52:18.747Z,6.73
2023-02-24T20:54:51.344Z,6.20
2023-02-24T20:57:20.496Z,7.10
2023-02-24T21:00:02.532Z,7.63
2023-02-24T21:02:32.862Z,7.53
2023-02-24T21:05:02.677Z,7.17
2023-02-24T21:07:37.345Z,7.20
2023-02-24T21:10:09.109Z,6.67
2023-02-24T21:12:38.310Z,7.50
2023-02-24T21:15:08.384Z,8.17
2023-02-24T21:17:37.590Z,8.17
2023-02-24T21:20:11.412Z,8.13
2023-02-24T21:22:41.000Z,7.97
2023-02-24T21:25:12.308Z,7.87
2023-02-24T21:27:41.916Z,8.60
2023-02-24T21:30:12.586Z,7.80
2023-02-24T21:32:41.763Z,7.80
2023-02-24T21:35:12.905Z,8.40
2023-02-24T21:37:42.771Z,8.63
2023-02-24T21:40:18.391Z,9.57
2023-02-24T21:42:48.492Z,8.40
2023-02-24T21:45:19.897Z,9.20
2023-02-24T21:47:49.106Z,9.00
2023-02-24T21:50:20.053Z,9.57
2023-02-24T21:52:50.238Z,11.40
2023-02-24T21:55:21.145Z,15.13
2023-02-24T21:57:50.795Z,9.10
2023-02-24T22:00:21.109Z,8.43
2023-02-24T22:02:55.989Z,8.23
2023-02-24T22:05:29.054Z,8.03
2023-02-24T22:07:58.379Z,8.33
2023-02-24T22:10:29.551Z,8.20
2023-02-24T22:12:58.564Z,7.37
2023-02-24T22:15:27.662Z,7.83
2023-02-24T22:17:56.879Z,7.90
2023-02-24T22:20:25.633Z,6.80
2023-02-24T22:22:54.597Z,7.67
2023-02-24T22:25:23.708Z,6.77
2023-02-24T22:27:54.290Z,7.97
2023-02-24T22:30:23.590Z,8.00
2023-02-24T22:32:52.704Z,7.97
2023-02-24T22:35:21.791Z,7.27
2023-02-24T22:37:50.623Z,6.43
2023-02-24T22:40:20.837Z,5.40
2023-02-24T22:42:50.403Z,5.40
2023-02-24T22:45:20.917Z,4.70
2023-02-24T22:47:50.067Z,4.70
2023-02-24T22:50:19.922Z,5.13
2023-02-24T22:52:49.596Z,4.80
2023-02-24T22:55:19.885Z,5.20
2023-02-24T22:57:49.177Z,5.00
2023-02-24T23:00:23.903Z,5.07
2023-02-24T23:02:52.740Z,5.77
2023-02-24T23:05:21.371Z,6.37
2023-02-24T23:07:50.201Z,5.47
2023-02-24T23:10:19.698Z,5.53
2023-02-24T23:12:49.130Z,5.30
2023-02-24T23:15:20.021Z,5.80
2023-02-24T23:17:49.352Z,4.93
2023-02-24T23:20:19.106Z,5.33
2023-02-24T23:22:51.433Z,5.53
2023-02-24T23:25:23.783Z,5.03
2023-02-24T23:27:54.645Z,5.00
2023-02-24T23:30:25.755Z,4.80
2023-02-24T23:32:54.502Z,4.80
2023-02-24T23:35:23.615Z,3.87
2023-02-24T23:37:52.495Z,3.90
2023-02-24T23:40:26.327Z,4.47
2023-02-24T23:42:55.442Z,3.87
2023-02-24T23:45:26.376Z,3.67
2023-02-24T23:47:55.702Z,3.40
2023-02-24T23:50:24.708Z,3.40
2023-02-24T23:52:53.998Z,3.10
2023-02-24T23:55:22.989Z,3.50
2023-02-24T23:57:52.286Z,3.53
